createdAt,value
2023-05-06T00:02:25.443Z,21.83
2023-05-06T00:05:04.173Z,18.02
2023-05-06T00:07:42.499Z,18.58
2023-05-06T00:10:14.130Z,15.32
2023-05-06T00:12:51.713Z,19.75
2023-05-06T00:15:38.585Z,17.17
2023-05-06T00:18:25.927Z,18.63
2023-05-06T00:21:07.495Z,17.60
2023-05-06T00:23:51.304Z,15.57
2023-05-06T00:26:26.226Z,14.15
2023-05-06T00:29:01.977Z,23.35
2023-05-06T00:31:38.753Z,19.35
2023-05-06T00:34:22.798Z,17.77
2023-05-06T00:37:01.263Z,15.20
2023-05-06T00:39:38.095Z,17.13
2023-05-06T00:42:14.354Z,20.13
2023-05-06T00:44:51.913Z,17.25
2023-05-06T00:47:32.437Z,14.23
2023-05-06T00:50:11.536Z,18.27
2023-05-06T00:52:55.634Z,17.85
2023-05-06T00:55:45.885Z,17.80
2023-05-06T00:58:18.398Z,22.77
2023-05-06T01:00:55.100Z,16.98
2023-05-06T01:03:30.367Z,14.85
2023-05-06T01:06:18.043Z,18.45
2023-05-06T01:09:09.948Z,22.88
2023-05-06T01:11:54.846Z,17.00
2023-05-06T01:14:35.264Z,14.23
2023-05-06T01:17:17.699Z,21.63
2023-05-06T01:20:02.174Z,26.30
2023-05-06T01:22:38.825Z,21.15
2023-05-06T01:25:32.602Z,20.58
2023-05-06T01:28:21.503Z,27.10
2023-05-06T01:31:08.258Z,20.88
2023-05-06T01:33:49.918Z,22.15
2023-05-06T01:36:33.287Z,21.85
2023-05-06T01:39:17.868Z,19.23
2023-05-06T01:41:55.325Z,20.92
2023-05-06T01:44:33.606Z,18.35
2023-05-06T01:47:11.831Z,19.13
2023-05-06T01:49:49.172Z,17.17
2023-05-06T01:52:25.720Z,23.52
2023-05-06T01:55:05.682Z,17.17
2023-05-06T01:57:42.288Z,22.85
2023-05-06T02:00:25.028Z,20.35
2023-05-06T02:02:59.001Z,19.55
2023-05-06T02:05:32.262Z,18.27
2023-05-06T02:08:11.477Z,21.40
2023-05-06T02:10:55.708Z,19.27
2023-05-06T02:13:34.425Z,18.85
2023-05-06T02:16:07.295Z,17.65
2023-05-06T02:18:43.956Z,18.13
2023-05-06T02:21:19.293Z,19.98
2023-05-06T02:23:53.237Z,17.05
2023-05-06T02:26:30.176Z,17.77
2023-05-06T02:29:09.996Z,20.73
2023-05-06T02:31:43.460Z,18.05
2023-05-06T02:34:18.124Z,24.10
2023-05-06T02:36:54.089Z,17.30
2023-05-06T02:39:25.854Z,18.60
2023-05-06T02:42:03.121Z,21.10
2023-05-06T02:44:38.538Z,16.30
2023-05-06T02:47:20.128Z,21.88
2023-05-06T02:50:03.209Z,18.95
2023-05-06T02:52:43.084Z,18.88
2023-05-06T02:55:21.627Z,20.65
2023-05-06T02:57:59.663Z,17.30
2023-05-06T03:00:53.259Z,18.77
2023-05-06T03:03:27.026Z,24.05
2023-05-06T03:06:03.534Z,19.98
2023-05-06T03:08:40.793Z,17.63
2023-05-06T03:11:19.275Z,22.77
2023-05-06T03:13:56.971Z,23.15
2023-05-06T03:16:49.337Z,20.45
2023-05-06T03:21:53.981Z,23.40
2023-05-06T03:24:30.537Z,17.80
2023-05-06T03:27:04.149Z,16.83
2023-05-06T03:29:48.882Z,19.63
2023-05-06T03:32:30.233Z,21.00
2023-05-06T03:35:07.701Z,21.80
2023-05-06T03:37:44.450Z,22.95
2023-05-06T03:40:19.276Z,20.38
2023-05-06T03:43:08.742Z,23.77
2023-05-06T03:45:45.138Z,23.60
2023-05-06T03:48:24.404Z,17.60
2023-05-06T03:51:08.444Z,18.45
2023-05-06T03:53:51.768Z,18.83
2023-05-06T03:56:31.943Z,20.23
2023-05-06T03:59:15.952Z,22.25
2023-05-06T04:01:55.255Z,24.05
2023-05-06T04:04:33.210Z,24.42
2023-05-06T04:07:08.379Z,20.80
2023-05-06T04:09:44.782Z,24.15
2023-05-06T04:12:19.682Z,23.60
2023-05-06T04:14:58.977Z,24.60
2023-05-06T04:17:36.344Z,21.92
2023-05-06T04:20:31.944Z,25.25
2023-05-06T04:23:06.808Z,20.63
2023-05-06T04:25:56.551Z,26.20
2023-05-06T04:28:33.526Z,22.88
2023-05-06T04:31:13.313Z,31.88
2023-05-06T04:33:56.002Z,28.45
2023-05-06T04:36:39.416Z,29.83
2023-05-06T04:39:28.934Z,31.92
2023-05-06T04:42:10.860Z,31.15
2023-05-06T04:45:02.127Z,31.27
2023-05-06T04:47:41.959Z,29.25
2023-05-06T04:50:23.176Z,34.47
2023-05-06T04:53:01.236Z,37.97
2023-05-06T04:55:41.329Z,32.67
2023-05-06T04:58:18.927Z,31.40
2023-05-06T05:00:53.654Z,38.75
2023-05-06T05:03:28.074Z,38.25
2023-05-06T05:06:06.084Z,32.22
2023-05-06T05:08:39.873Z,35.22
2023-05-06T05:11:24.189Z,38.33
2023-05-06T05:14:01.965Z,33.80
2023-05-06T05:16:46.603Z,32.45
2023-05-06T05:19:23.799Z,38.78
2023-05-06T05:21:57.748Z,37.88
2023-05-06T05:24:35.416Z,37.22
2023-05-06T05:27:12.602Z,40.88
2023-05-06T05:30:01.587Z,35.42
2023-05-06T05:32:50.357Z,33.92
2023-05-06T05:35:37.404Z,32.67
2023-05-06T05:38:14.575Z,36.92
2023-05-06T05:40:48.336Z,35.45
2023-05-06T05:43:22.319Z,32.47
2023-05-06T05:46:05.918Z,36.05
2023-05-06T05:51:21.024Z,34.60
2023-05-06T05:54:05.198Z,33.97
2023-05-06T05:56:56.448Z,36.83
2023-05-06T05:59:31.725Z,37.42
2023-05-06T06:02:13.955Z,34.50
2023-05-06T06:04:51.789Z,34.10
2023-05-06T06:07:22.665Z,34.42
2023-05-06T06:10:02.584Z,38.60
2023-05-06T06:12:39.871Z,42.03
2023-05-06T06:15:18.525Z,32.95
2023-05-06T06:18:00.965Z,32.50
2023-05-06T06:20:39.995Z,30.63
2023-05-06T06:23:14.757Z,26.33
2023-05-06T06:25:51.697Z,27.83
2023-05-06T06:28:33.702Z,26.90
2023-05-06T06:31:10.167Z,29.00
2023-05-06T06:33:44.936Z,27.35
2023-05-06T06:36:17.173Z,27.20
2023-05-06T06:38:54.992Z,28.80
2023-05-06T06:41:32.280Z,28.05
2023-05-06T06:44:09.939Z,25.30
2023-05-06T06:46:52.074Z,28.50
2023-05-06T06:49:23.959Z,28.10
2023-05-06T06:52:01.879Z,27.05
2023-05-06T06:54:38.404Z,24.10
2023-05-06T06:57:13.206Z,28.02
2023-05-06T07:00:02.789Z,26.65
2023-05-06T07:02:41.405Z,25.52
2023-05-06T07:05:22.574Z,22.35
2023-05-06T07:07:55.043Z,24.35
2023-05-06T07:10:33.484Z,23.48
2023-05-06T07:13:17.494Z,21.30
2023-05-06T07:16:00.975Z,19.45
2023-05-06T07:18:38.277Z,23.05
2023-05-06T07:21:11.935Z,19.58
2023-05-06T07:23:45.225Z,19.17
2023-05-06T07:26:26.641Z,26.52
2023-05-06T07:29:05.582Z,19.23
2023-05-06T07:31:44.908Z,16.50
2023-05-06T07:34:27.656Z,19.05
2023-05-06T07:37:04.224Z,16.38
2023-05-06T07:39:42.610Z,17.90
2023-05-06T07:42:16.138Z,21.88
2023-05-06T07:44:49.318Z,18.10
2023-05-06T07:47:35.577Z,18.30
2023-05-06T07:50:20.368Z,16.23
2023-05-06T07:52:57.496Z,15.38
2023-05-06T07:55:47.436Z,16.35
2023-05-06T07:58:23.362Z,12.77
2023-05-06T08:01:01.899Z,14.00
2023-05-06T08:03:41.632Z,13.52
2023-05-06T08:06:16.163Z,17.02
2023-05-06T08:08:52.355Z,7.80
2023-05-06T08:11:28.989Z,9.82
2023-05-06T08:14:06.187Z,9.93
2023-05-06T08:16:44.261Z,15.68
2023-05-06T08:19:26.401Z,17.25
2023-05-06T08:22:05.453Z,16.27
2023-05-06T08:24:48.616Z,12.75
2023-05-06T08:27:38.191Z,15.85
2023-05-06T08:30:18.953Z,16.98
2023-05-06T08:32:58.246Z,16.40
2023-05-06T08:35:34.952Z,19.67
2023-05-06T08:38:10.177Z,9.73
2023-05-06T08:40:46.750Z,9.20
2023-05-06T08:43:28.091Z,11.30
2023-05-06T08:46:06.477Z,6.80
2023-05-06T08:48:49.889Z,8.30
2023-05-06T08:51:39.460Z,6.65
2023-05-06T08:54:18.884Z,7.80
2023-05-06T08:56:57.538Z,8.10
2023-05-06T08:59:41.015Z,8.70
2023-05-06T09:02:31.493Z,9.32
2023-05-06T09:05:15.369Z,9.05
2023-05-06T09:07:54.561Z,9.82
2023-05-06T09:10:43.255Z,5.57
2023-05-06T09:13:23.713Z,9.20
2023-05-06T09:16:02.875Z,7.20
2023-05-06T09:18:41.250Z,11.05
2023-05-06T09:21:14.405Z,5.78
2023-05-06T09:23:56.517Z,6.28
2023-05-06T09:26:35.470Z,5.68
2023-05-06T09:29:12.012Z,5.07
2023-05-06T09:31:59.098Z,7.97
2023-05-06T09:34:40.422Z,5.65
2023-05-06T09:37:21.266Z,5.63
2023-05-06T09:40:02.985Z,6.75
2023-05-06T09:42:39.605Z,5.65
2023-05-06T09:45:31.245Z,5.03
2023-05-06T09:48:18.489Z,7.93
2023-05-06T09:51:13.622Z,5.35
2023-05-06T09:54:01.810Z,5.22
2023-05-06T09:56:44.297Z,5.95
2023-05-06T09:59:25.785Z,5.60
2023-05-06T10:02:03.440Z,7.80
2023-05-06T10:04:45.084Z,3.10
2023-05-06T10:07:34.824Z,4.75
2023-05-06T10:10:25.236Z,4.72
2023-05-06T10:13:08.566Z,2.80
2023-05-06T10:15:48.264Z,5.45
2023-05-06T10:18:26.865Z,4.65
2023-05-06T10:21:08.800Z,5.68
2023-05-06T10:24:01.490Z,3.38
2023-05-06T10:26:39.814Z,6.22
2023-05-06T10:29:28.418Z,3.10
2023-05-06T10:32:12.331Z,5.22
2023-05-06T10:35:00.919Z,3.10
2023-05-06T10:37:43.785Z,4.15
2023-05-06T10:43:37.038Z,4.53
2023-05-06T10:49:33.754Z,9.50
2023-05-06T10:52:29.668Z,4.40
2023-05-06T10:55:08.887Z,4.00
2023-05-06T10:57:53.936Z,4.07
2023-05-06T11:00:36.625Z,3.15
2023-05-06T11:03:17.586Z,4.85
2023-05-06T11:06:09.285Z,12.05
2023-05-06T11:09:06.649Z,5.68
2023-05-06T11:15:03.234Z,6.75
2023-05-06T11:17:57.920Z,6.78
2023-05-06T11:20:41.731Z,4.53
2023-05-06T11:23:21.294Z,4.93
2023-05-06T11:26:00.098Z,4.75
2023-05-06T11:28:42.821Z,8.20
2023-05-06T11:31:26.857Z,3.60
2023-05-06T11:34:10.578Z,4.53
2023-05-06T11:37:05.975Z,3.60
2023-05-06T11:39:47.203Z,6.47
2023-05-06T11:42:35.301Z,7.97
2023-05-06T11:45:20.908Z,6.20
2023-05-06T11:48:03.321Z,5.47
2023-05-06T11:50:48.870Z,7.03
2023-05-06T11:53:30.956Z,4.43
2023-05-06T11:56:17.697Z,7.05
2023-05-06T11:58:58.624Z,3.53
2023-05-06T12:01:32.612Z,3.70
2023-05-06T12:04:07.988Z,3.92
2023-05-06T12:06:44.023Z,3.92
2023-05-06T12:09:27.098Z,6.38
2023-05-06T12:12:06.516Z,6.75
2023-05-06T12:14:52.098Z,8.95
2023-05-06T12:17:27.621Z,7.00
2023-05-06T12:19:59.199Z,4.95
2023-05-06T12:22:39.523Z,4.30
2023-05-06T12:25:22.472Z,5.20
2023-05-06T12:27:54.945Z,4.97
2023-05-06T12:30:44.458Z,3.30
2023-05-06T12:33:21.665Z,5.72
2023-05-06T12:36:15.761Z,7.85
2023-05-06T12:39:00.316Z,6.25
2023-05-06T12:41:47.237Z,4.20
2023-05-06T12:44:40.985Z,5.63
2023-05-06T12:47:16.503Z,3.97
2023-05-06T12:50:01.573Z,3.50
2023-05-06T12:52:40.293Z,4.82
2023-05-06T12:55:23.056Z,5.78
2023-05-06T12:57:58.558Z,2.88
2023-05-06T13:00:42.468Z,3.45
2023-05-06T13:03:18.318Z,4.15
2023-05-06T13:05:55.945Z,4.57
2023-05-06T13:08:35.541Z,3.60
2023-05-06T13:11:09.337Z,5.05
2023-05-06T13:13:49.917Z,3.95
2023-05-06T13:16:25.484Z,4.10
2023-05-06T13:18:57.735Z,3.70
2023-05-06T13:21:34.254Z,5.38
2023-05-06T13:24:07.503Z,7.03
2023-05-06T13:26:40.012Z,6.13
2023-05-06T13:29:25.476Z,7.38
2023-05-06T13:32:07.085Z,5.40
2023-05-06T13:34:40.980Z,5.85
2023-05-06T13:37:15.212Z,11.60
2023-05-06T13:39:54.292Z,8.20
2023-05-06T13:42:25.309Z,7.80
2023-05-06T13:45:09.152Z,3.83
2023-05-06T13:47:44.460Z,8.23
2023-05-06T13:50:32.679Z,3.17
2023-05-06T13:53:04.803Z,3.85
2023-05-06T13:55:43.904Z,4.72
2023-05-06T13:58:14.365Z,3.63
2023-05-06T14:00:55.966Z,7.47
2023-05-06T14:03:27.782Z,3.58
2023-05-06T14:06:03.512Z,8.35
2023-05-06T14:08:36.155Z,4.38
2023-05-06T14:11:15.329Z,5.15
2023-05-06T14:13:54.076Z,5.40
2023-05-06T14:16:31.227Z,5.70
2023-05-06T14:19:08.179Z,3.28
2023-05-06T14:21:52.172Z,3.47
2023-05-06T14:24:31.147Z,4.15
2023-05-06T14:27:08.875Z,4.53
2023-05-06T14:29:43.326Z,4.97
2023-05-06T14:32:21.816Z,3.47
2023-05-06T14:34:58.885Z,3.92
2023-05-06T14:37:40.058Z,6.32
2023-05-06T14:40:25.864Z,7.60
2023-05-06T14:43:00.933Z,3.88
2023-05-06T14:45:41.137Z,4.38
2023-05-06T14:48:21.564Z,4.65
2023-05-06T14:50:57.953Z,4.07
2023-05-06T14:53:36.549Z,3.67
2023-05-06T14:56:16.431Z,4.57
2023-05-06T14:58:51.653Z,5.63
2023-05-06T15:01:39.813Z,5.30
2023-05-06T15:04:24.024Z,9.82
2023-05-06T15:07:06.509Z,4.15
2023-05-06T15:09:55.015Z,3.78
2023-05-06T15:12:31.672Z,4.00
2023-05-06T15:15:14.090Z,3.92
2023-05-06T15:17:48.542Z,3.85
2023-05-06T15:20:25.452Z,5.28
2023-05-06T15:23:07.034Z,4.60
2023-05-06T15:25:42.966Z,3.60
2023-05-06T15:28:17.711Z,2.90
2023-05-06T15:30:53.177Z,5.50
2023-05-06T15:33:27.017Z,6.18
2023-05-06T15:36:08.669Z,3.75
2023-05-06T15:39:01.201Z,7.97
2023-05-06T15:41:38.279Z,3.10
2023-05-06T15:44:15.957Z,3.03
2023-05-06T15:46:51.777Z,5.35
2023-05-06T15:52:25.354Z,4.32
2023-05-06T15:55:14.249Z,6.88
2023-05-06T15:57:50.164Z,4.60
2023-05-06T16:00:26.417Z,2.92
2023-05-06T16:03:05.966Z,3.28
2023-05-06T16:08:29.396Z,3.42
2023-05-06T16:11:08.220Z,3.60
2023-05-06T16:13:47.751Z,7.93
2023-05-06T16:16:28.773Z,5.25
2023-05-06T16:19:20.423Z,7.10
2023-05-06T16:22:06.324Z,3.95
2023-05-06T16:24:45.879Z,4.57
2023-05-06T16:27:20.527Z,6.40
2023-05-06T16:30:01.885Z,3.97
2023-05-06T16:32:46.410Z,5.38
2023-05-06T16:35:25.933Z,4.13
2023-05-06T16:38:06.964Z,4.65
2023-05-06T16:40:51.329Z,2.90
2023-05-06T16:43:37.183Z,4.10
2023-05-06T16:46:09.469Z,5.28
2023-05-06T16:48:46.949Z,3.47
2023-05-06T16:51:22.331Z,4.22
2023-05-06T16:54:02.725Z,4.78
2023-05-06T16:56:51.461Z,4.72
2023-05-06T16:59:24.433Z,4.43
2023-05-06T17:01:59.272Z,5.10
2023-05-06T17:04:40.380Z,8.38
2023-05-06T17:07:16.269Z,3.72
2023-05-06T17:10:02.841Z,5.95
2023-05-06T17:15:25.010Z,4.40
2023-05-06T17:17:55.601Z,5.97
2023-05-06T17:20:26.189Z,6.45
2023-05-06T17:22:56.389Z,4.82
2023-05-06T17:25:26.634Z,6.22
2023-05-06T17:27:56.869Z,7.13
2023-05-06T17:30:29.799Z,4.38
2023-05-06T17:33:03.163Z,9.25
2023-05-06T17:35:33.388Z,5.40
2023-05-06T17:38:03.598Z,6.32
2023-05-06T17:40:33.846Z,4.43
2023-05-06T17:43:04.077Z,6.13
2023-05-06T17:45:36.920Z,7.00
2023-05-06T17:48:10.126Z,10.70
2023-05-06T17:50:40.437Z,11.18
2023-05-06T17:53:13.570Z,5.50
2023-05-06T17:55:44.004Z,8.73
2023-05-06T17:58:14.600Z,11.23
2023-05-06T18:00:49.942Z,10.43
2023-05-06T18:03:20.605Z,7.55
2023-05-06T18:05:51.306Z,10.02
2023-05-06T18:08:21.841Z,9.88
2023-05-06T18:10:53.692Z,6.50
2023-05-06T18:13:24.500Z,9.30
2023-05-06T18:18:28.139Z,6.13
2023-05-06T18:20:58.527Z,11.10
2023-05-06T18:23:29.926Z,8.75
2023-05-06T18:26:00.682Z,6.50
2023-05-06T18:28:32.064Z,8.02
2023-05-06T18:31:07.206Z,8.60
2023-05-06T18:33:38.231Z,4.88
2023-05-06T18:38:39.205Z,8.50
2023-05-06T18:46:17.282Z,7.25
2023-05-06T18:48:47.543Z,9.18
2023-05-06T18:51:18.904Z,9.98
2023-05-06T18:53:49.189Z,4.10
2023-05-06T18:56:19.717Z,8.60
2023-05-06T18:58:50.129Z,8.82
2023-05-06T19:01:25.339Z,7.30
2023-05-06T19:03:55.976Z,197.13
2023-05-06T19:06:26.550Z,61.55
2023-05-06T19:08:56.861Z,11.02
2023-05-06T19:11:27.280Z,6.03
2023-05-06T19:13:57.968Z,6.45
2023-05-06T19:16:31.851Z,7.43
2023-05-06T19:19:02.984Z,3.97
2023-05-06T19:21:33.295Z,5.10
2023-05-06T19:26:34.397Z,5.40
2023-05-06T19:29:04.986Z,7.88
2023-05-06T19:31:38.163Z,5.30
2023-05-06T19:34:08.717Z,4.10
2023-05-06T19:36:39.373Z,6.38
2023-05-06T19:39:09.632Z,8.90
2023-05-06T19:41:40.093Z,5.22
2023-05-06T19:44:12.867Z,6.13
2023-05-06T19:46:45.940Z,7.55
2023-05-06T19:49:16.198Z,5.93
2023-05-06T19:51:46.544Z,5.05
2023-05-06T19:54:17.019Z,8.10
2023-05-06T19:56:47.556Z,8.05
2023-05-06T19:59:19.947Z,6.07
2023-05-06T20:01:53.538Z,5.93
2023-05-06T20:04:23.870Z,7.80
2023-05-06T20:06:55.369Z,8.02
2023-05-06T20:09:25.983Z,6.32
2023-05-06T20:11:56.579Z,4.85
2023-05-06T20:14:26.776Z,5.90
2023-05-06T20:16:59.828Z,12.60
2023-05-06T20:19:31.473Z,8.02
2023-05-06T20:22:02.675Z,6.50
2023-05-06T20:24:37.352Z,6.50
2023-05-06T20:27:08.286Z,8.35
2023-05-06T20:29:38.969Z,6.32
2023-05-06T20:32:12.047Z,8.40
2023-05-06T20:34:42.342Z,7.75
2023-05-06T20:37:13.512Z,7.47
2023-05-06T20:39:46.816Z,11.55
2023-05-06T20:42:17.042Z,8.02
2023-05-06T20:44:47.473Z,4.90
2023-05-06T20:47:21.538Z,7.18
2023-05-06T20:49:52.051Z,8.75
2023-05-06T20:52:22.706Z,5.38
2023-05-06T20:54:53.550Z,8.07
2023-05-06T20:57:25.484Z,5.30
2023-05-06T20:59:56.539Z,5.97
2023-05-06T21:02:32.990Z,5.25
2023-05-06T21:05:09.227Z,7.22
2023-05-06T21:07:43.087Z,9.63
2023-05-06T21:10:14.890Z,5.68
2023-05-06T21:12:50.608Z,8.43
2023-05-06T21:15:21.327Z,7.65
2023-05-06T21:17:54.326Z,9.18
2023-05-06T21:20:24.707Z,8.57
2023-05-06T21:22:55.476Z,7.75
2023-05-06T21:25:28.171Z,15.32
2023-05-06T21:28:03.794Z,12.73
2023-05-06T21:30:34.235Z,8.40
2023-05-06T21:33:08.606Z,10.10
2023-05-06T21:35:41.170Z,10.68
2023-05-06T21:38:11.496Z,7.80
2023-05-06T21:40:41.745Z,9.57
2023-05-06T21:43:12.783Z,10.90
2023-05-06T21:45:42.899Z,11.20
2023-05-06T21:48:16.089Z,8.93
2023-05-06T21:50:46.421Z,9.48
2023-05-06T21:53:17.382Z,10.10
2023-05-06T21:58:17.727Z,8.65
2023-05-06T22:00:48.387Z,9.10
2023-05-06T22:03:21.415Z,9.73
2023-05-06T22:05:54.349Z,9.00
2023-05-06T22:08:25.319Z,7.07
2023-05-06T22:13:27.200Z,11.67
2023-05-06T22:15:58.037Z,11.82
2023-05-06T22:18:32.690Z,14.75
2023-05-06T22:21:03.581Z,12.82
2023-05-06T22:26:04.170Z,10.90
2023-05-06T22:28:34.352Z,12.20
2023-05-06T22:31:04.602Z,8.40
2023-05-06T22:33:37.384Z,7.07
2023-05-06T22:36:08.405Z,9.63
2023-05-06T22:38:39.406Z,7.07
2023-05-06T22:41:09.540Z,9.73
2023-05-06T22:43:39.715Z,6.77
2023-05-06T22:46:09.966Z,7.33
2023-05-06T22:48:47.233Z,7.78
2023-05-06T22:51:21.859Z,11.88
2023-05-06T22:53:52.549Z,8.30
2023-05-06T22:56:23.366Z,6.97
2023-05-06T22:58:53.576Z,10.65
2023-05-06T23:01:25.475Z,7.45
2023-05-06T23:03:58.360Z,7.63
2023-05-06T23:06:28.589Z,10.18
2023-05-06T23:08:58.968Z,7.68
2023-05-06T23:11:29.115Z,11.63
2023-05-06T23:13:59.290Z,11.07
2023-05-06T23:16:29.826Z,9.67
2023-05-06T23:19:03.256Z,13.18
2023-05-06T23:21:33.521Z,11.77
2023-05-06T23:24:03.692Z,11.10
2023-05-06T23:26:34.027Z,12.93
2023-05-06T23:29:04.658Z,9.50
2023-05-06T23:31:34.883Z,7.90
2023-05-06T23:34:10.364Z,9.60
2023-05-06T23:36:40.763Z,8.10
2023-05-06T23:39:12.514Z,11.50
2023-05-06T23:41:42.674Z,13.10
2023-05-06T23:44:12.940Z,8.33
2023-05-06T23:46:43.199Z,9.73
2023-05-06T23:49:16.164Z,9.95
2023-05-06T23:51:47.195Z,6.05
2023-05-06T23:56:47.262Z,9.00
2023-05-06T23:59:17.442Z,7.90
